.
WxDataArchive / Data Records for 2016-03-25
2016-03-24 March 2016 2016-03-26

Data Records for Friday, 25 March 2016

Time	Temp	Chill	HIndex	Humid	Dewpt	 Wind 	HiWind	WindDir	Rain 	Barom
-----	----	-----	------	-----	-----	------	------	-------	-----	-----
00:00	38.6	38.6	38.6	85	34.5	3	6	292	0.00	29.653 
00:05	38.5	38.5	38.5	85	34.4	3	6	270	0.00	29.653 
00:10	38.3	38.3	38.3	85	34.2	3	7	270	0.00	29.653 
00:15	38.3	38.3	38.3	85	34.2	3	5	270	0.00	29.664 
00:20	38.2	38.2	38.2	84	33.8	3	6	270	0.00	29.664 
00:25	38.2	38.2	38.2	84	33.8	3	6	270	0.00	29.664 
00:30	38.2	38.2	38.2	84	33.8	2	4	270	0.00	29.669 
00:35	38.2	38.2	38.2	84	33.8	2	4	270	0.00	29.669 
00:40	38.0	38.0	38.0	84	33.6	2	4	270	0.00	29.669 
00:45	38.0	38.0	38.0	84	33.6	1	3	270	0.00	29.682 
00:50	37.9	37.9	37.9	85	33.8	2	5	292	0.00	29.682 
00:55	37.8	37.8	37.8	85	33.7	2	4	270	0.00	29.682 
01:00	37.8	37.8	37.8	85	33.7	1	4	292	0.00	29.691 
01:05	37.6	37.6	37.6	85	33.5	2	5	292	0.00	29.691 
01:10	37.5	37.5	37.5	84	33.1	3	5	270	0.00	29.691 
01:15	37.3	37.3	37.3	84	32.9	2	3	292	0.00	29.697 
01:20	37.3	37.3	37.3	84	32.9	2	5	292	0.00	29.697 
01:25	37.2	37.2	37.2	84	32.8	2	4	292	0.00	29.697 
01:30	37.2	37.2	37.2	84	32.8	2	5	292	0.00	29.707 
01:35	37.0	37.0	37.0	84	32.6	2	5	270	0.00	29.707 
01:40	37.0	37.0	37.0	84	32.6	2	4	270	0.00	29.707 
01:45	37.0	37.0	37.0	84	32.6	2	5	270	0.00	29.714 
01:50	37.0	37.0	37.0	84	32.6	2	5	270	0.00	29.714 
01:55	36.9	36.9	36.9	83	32.2	2	6	292	0.00	29.714 
02:00	36.9	36.9	36.9	83	32.2	2	5	270	0.00	29.714 
02:05	36.8	36.8	36.8	83	32.1	1	3	292	0.00	29.714 
02:10	36.8	36.8	36.8	84	32.4	2	5	292	0.00	29.714 
02:15	36.6	36.6	36.6	83	31.9	2	5	338	0.00	29.714 
02:20	36.5	36.5	36.5	83	31.8	3	6	292	0.00	29.714 
02:25	36.5	36.5	36.5	83	31.8	3	6	270	0.00	29.714 
02:30	36.3	36.3	36.3	82	31.3	3	7	292	0.00	29.722 
02:35	36.3	36.3	36.3	82	31.3	2	6	292	0.00	29.722 
02:40	36.3	36.3	36.3	82	31.3	3	6	292	0.00	29.722 
02:45	36.2	36.2	36.2	83	31.5	3	6	270	0.00	29.729 
02:50	35.9	35.9	35.9	83	31.2	3	6	292	0.00	29.729 
02:55	35.8	35.8	35.8	82	30.9	2	5	270	0.00	29.729 
03:00	35.6	35.6	35.6	81	30.4	3	7	292	0.00	29.729 
03:05	35.6	35.6	35.6	81	30.4	2	5	292	0.00	29.729 
03:10	35.6	35.6	35.6	81	30.4	1	5	315	0.00	29.729 
03:15	35.5	35.5	35.5	81	30.3	3	7	292	0.00	29.739 
03:20	35.2	31.8	35.2	80	29.7	4	10	270	0.00	29.739 
03:25	34.9	34.9	34.9	80	29.4	3	7	292	0.00	29.739 
03:30	34.7	34.7	34.7	81	29.5	3	6	292	0.00	29.745 
03:35	34.6	34.6	34.6	81	29.4	3	6	315	0.00	29.745 
03:40	34.3	30.7	34.3	81	29.1	4	11	292	0.00	29.745 
03:45	34.3	34.3	34.3	82	29.4	2	5	292	0.00	29.752 
03:50	34.3	34.3	34.3	82	29.4	3	5	270	0.00	29.752 
03:55	34.1	34.1	34.1	82	29.2	3	5	292	0.00	29.752 
04:00	33.8	33.8	33.8	83	29.2	3	7	292	0.00	29.758 
04:05	33.7	33.7	33.7	83	29.1	2	5	292	0.00	29.758 
04:10	33.7	33.7	33.7	84	29.4	2	5	292	0.00	29.758 
04:15	33.7	33.7	33.7	84	29.4	1	5	315	0.00	29.761 
04:20	33.5	33.5	33.5	84	29.2	3	7	292	0.00	29.761 
04:25	33.4	33.4	33.4	84	29.1	3	6	270	0.00	29.761 
04:30	33.1	33.1	33.1	83	28.5	3	6	270	0.00	29.776 
04:35	33.1	33.1	33.1	83	28.5	3	7	292	0.00	29.776 
04:40	33.1	33.1	33.1	83	28.5	3	7	292	0.00	29.776 
04:45	33.1	33.1	33.1	83	28.5	2	10	315	0.00	29.781 
04:50	33.1	33.1	33.1	83	28.5	2	4	315	0.00	29.781 
04:55	33.1	33.1	33.1	83	28.5	3	9	292	0.00	29.781 
05:00	33.1	33.1	33.1	83	28.5	1	5	292	0.00	29.792 
05:05	33.1	33.1	33.1	82	28.2	2	7	315	0.00	29.792 
05:10	33.1	33.1	33.1	82	28.2	2	6	270	0.00	29.792 
05:15	32.9	32.9	32.9	82	28.0	2	7	292	0.00	29.804 
05:20	32.9	32.9	32.9	82	28.0	1	3	292	0.00	29.804 
05:25	32.8	32.8	32.8	82	27.9	2	6	292	0.00	29.804 
05:30	32.8	32.8	32.8	82	27.9	2	6	292	0.00	29.815 
05:35	32.7	32.7	32.7	81	27.5	2	4	292	0.00	29.815 
05:40	32.7	32.7	32.7	81	27.5	3	4	292	0.00	29.815 
05:45	32.7	32.7	32.7	81	27.5	1	5	270	0.00	29.829 
05:50	32.5	32.5	32.5	80	27.0	3	7	292	0.00	29.829 
05:55	32.4	32.4	32.4	79	26.6	2	5	315	0.00	29.829 
06:00	32.2	32.2	32.2	78	26.1	2	6	292	0.00	29.844 
06:05	32.1	32.1	32.1	78	26.0	2	5	292	0.00	29.844 
06:10	31.8	31.8	31.8	77	25.4	3	6	338	0.00	29.844 
06:15	31.6	31.6	31.6	77	25.2	3	6	338	0.00	29.852 
06:20	31.5	31.5	31.5	77	25.1	2	9	292	0.00	29.852 
06:25	31.5	31.5	31.5	77	25.1	2	5	315	0.00	29.852 
06:30	31.3	31.3	31.3	77	24.9	2	5	338	0.00	29.864 
06:35	31.3	31.3	31.3	77	24.9	2	6	292	0.00	29.864 
06:40	31.3	31.3	31.3	77	24.9	2	6	292	0.00	29.864 
06:45	31.3	31.3	31.3	77	24.9	2	5	292	0.00	29.876 
06:50	31.3	31.3	31.3	77	24.9	2	6	270	0.00	29.876 
06:55	31.2	31.2	31.2	77	24.8	2	5	270	0.00	29.876 
07:00	31.2	31.2	31.2	76	24.5	2	6	292	0.00	29.882 
07:05	31.0	31.0	31.0	75	24.0	2	5	338	0.00	29.882 
07:10	30.9	30.9	30.9	76	24.2	1	4	315	0.00	29.882 
07:15	30.9	30.9	30.9	76	24.2	1	4	292	0.00	29.895 
07:20	30.9	30.9	30.9	76	24.2	1	3	292	0.00	29.895 
07:25	30.9	30.9	30.9	77	24.6	1	3	292	0.00	29.895 
07:30	30.9	30.9	30.9	76	24.2	1	5	292	0.00	29.901 
07:35	30.7	30.7	30.7	76	24.0	1	5	270	0.00	29.901 
07:40	30.7	30.7	30.7	76	24.0	1	3	292	0.00	29.901 
07:45	30.7	30.7	30.7	76	24.0	1	4	292	0.00	29.912 
07:50	30.7	30.7	30.7	76	24.0	1	4	315	0.00	29.912 
07:55	30.7	30.7	30.7	76	24.0	0	3	338	0.00	29.912 
08:00	30.7	30.7	30.7	76	24.0	2	5	292	0.00	29.926 
08:05	30.7	30.7	30.7	77	24.4	2	5	292	0.00	29.926 
08:10	30.7	30.7	30.7	76	24.0	1	5	270	0.00	29.926 
08:15	30.6	30.6	30.6	75	23.6	2	6	292	0.00	29.942 
08:20	30.6	30.6	30.6	75	23.6	2	6	292	0.00	29.942 
08:25	30.4	30.4	30.4	74	23.1	1	4	0	0.00	29.942 
08:30	30.3	30.3	30.3	74	23.0	1	4	315	0.00	29.956 
08:35	30.3	30.3	30.3	74	23.0	2	6	338	0.00	29.956 
08:40	30.3	30.3	30.3	75	23.3	2	5	292	0.00	29.956 
08:45	30.3	30.3	30.3	75	23.3	1	4	315	0.00	29.967 
08:50	30.4	30.4	30.4	75	23.4	1	4	338	0.00	29.967 
08:55	30.4	30.4	30.4	75	23.4	1	5	0	0.00	29.967 
09:00	30.4	30.4	30.4	75	23.4	2	4	270	0.00	29.981 
09:05	30.4	30.4	30.4	75	23.4	1	5	315	0.00	29.981 
09:10	30.4	30.4	30.4	75	23.4	1	3	315	0.00	29.981 
09:15	30.4	30.4	30.4	75	23.4	1	6	338	0.00	29.995 
09:20	30.4	30.4	30.4	75	23.4	1	4	292	0.00	29.995 
09:25	30.6	30.6	30.6	75	23.6	1	2	315	0.00	29.995 
09:30	30.7	30.7	30.7	75	23.7	0	2	292	0.00	30.002 
09:35	30.9	30.9	30.9	75	23.9	1	3	292	0.00	30.002 
09:40	31.0	31.0	31.0	74	23.7	0	3	270	0.00	30.002 
09:45	31.2	31.2	31.2	74	23.9	1	3	315	0.00	30.004 
09:50	31.2	31.2	31.2	74	23.9	1	4	338	0.00	30.004 
09:55	31.3	31.3	31.3	74	24.0	2	7	315	0.00	30.004 
10:00	31.3	31.3	31.3	73	23.7	2	5	338	0.00	30.015 
10:05	31.5	31.5	31.5	74	24.2	2	9	338	0.00	30.015 
10:10	31.6	31.6	31.6	74	24.3	2	5	270	0.00	30.015 
10:15	31.8	31.8	31.8	73	24.1	2	5	292	0.00	30.017 
10:20	31.9	31.9	31.9	74	24.6	1	5	338	0.00	30.017 
10:25	31.9	31.9	31.9	73	24.2	1	4	338	0.00	30.017 
10:30	32.4	32.4	32.4	74	25.1	1	3	292	0.00	30.030 
10:35	32.4	32.4	32.4	73	24.7	1	4	292	0.00	30.030 
10:40	32.5	32.5	32.5	73	24.8	1	4	0	0.00	30.030 
10:45	32.5	32.5	32.5	73	24.8	0	2	0	0.00	30.038 
10:50	32.8	32.8	32.8	73	25.1	1	4	90	0.00	30.038 
10:55	32.9	32.9	32.9	73	25.2	1	3	315	0.00	30.038 
11:00	32.9	32.9	32.9	72	24.9	1	3	338	0.00	30.047 
11:05	32.9	32.9	32.9	72	24.9	1	3	0	0.00	30.047 
11:10	33.1	33.1	33.1	73	25.4	1	3	292	0.00	30.047 
11:15	33.4	33.4	33.4	73	25.7	0	2	292	0.00	30.052 
11:20	33.5	33.5	33.5	72	25.5	0	4	292	0.00	30.052 
11:25	34.0	34.0	34.0	72	25.9	1	5	112	0.00	30.052 
11:30	34.7	34.7	34.7	71	26.3	1	4	338	0.00	30.059 
11:35	35.6	35.6	35.6	69	26.4	2	7	45	0.00	30.059 
11:40	36.6	36.6	36.6	69	27.4	1	5	90	0.00	30.059 
11:45	37.0	37.0	37.0	65	26.3	2	5	22	0.00	30.058 
11:50	37.3	37.3	37.3	67	27.4	1	5	0	0.00	30.058 
11:55	37.2	37.2	37.2	65	26.5	1	5	338	0.00	30.058 
12:00	36.9	36.9	36.9	67	27.0	1	4	0	0.00	30.058 
12:05	36.5	36.5	36.5	65	25.9	1	4	292	0.00	30.058 
12:10	36.0	36.0	36.0	66	25.8	1	4	315	0.00	30.058 
12:15	36.2	36.2	36.2	68	26.7	1	3	338	0.00	30.061 
12:20	36.3	36.3	36.3	67	26.4	2	6	22	0.00	30.061 
12:25	36.0	36.0	36.0	66	25.8	1	4	22	0.00	30.061 
12:30	36.0	36.0	36.0	67	26.1	1	3	315	0.00	30.064 
12:35	36.2	36.2	36.2	68	26.7	1	6	90	0.00	30.064 
12:40	36.3	36.3	36.3	68	26.8	1	3	22	0.00	30.064 
12:45	36.5	36.5	36.5	67	26.6	0	2	22	0.00	30.065 
12:50	36.6	36.6	36.6	66	26.3	1	4	22	0.00	30.065 
12:55	36.8	36.8	36.8	67	26.9	1	4	90	0.00	30.065 
13:00	36.5	36.5	36.5	66	26.2	1	4	292	0.00	30.070 
13:05	36.8	36.8	36.8	67	26.9	1	3	112	0.00	30.070 
13:10	36.9	36.9	36.9	67	27.0	1	3	112	0.00	30.070 
13:15	37.0	37.0	37.0	66	26.7	0	2	68	0.00	30.069 
13:20	37.3	37.3	37.3	67	27.4	1	4	68	0.00	30.069 
13:25	37.0	37.0	37.0	65	26.3	2	4	338	0.00	30.069 
13:30	36.9	36.9	36.9	67	27.0	0	3	315	0.00	30.067 
13:35	37.5	37.5	37.5	66	27.2	1	3	45	0.00	30.067 
13:40	37.8	37.8	37.8	65	27.1	1	3	45	0.00	30.067 
13:45	38.3	38.3	38.3	68	28.7	1	3	68	0.00	30.062 
13:50	38.9	38.9	38.9	66	28.5	0	3	45	0.00	30.062 
13:55	39.8	39.8	39.8	69	30.5	1	3	45	0.00	30.062 
14:00	40.1	40.1	40.1	65	29.3	1	3	45	0.00	30.061 
14:05	40.1	40.1	40.1	66	29.7	1	5	68	0.00	30.061 
14:10	40.2	40.2	40.2	65	29.4	2	5	112	0.00	30.061 
14:15	40.1	40.1	40.1	65	29.3	2	6	45	0.00	30.061 
14:20	40.1	40.1	40.1	65	29.3	1	4	112	0.00	30.061 
14:25	39.8	39.8	39.8	64	28.6	1	4	112	0.00	30.061 
14:30	39.9	39.9	39.9	68	30.2	1	4	112	0.00	30.060 
14:35	40.5	40.5	40.5	66	30.0	1	4	68	0.00	30.060 
14:40	40.8	40.8	40.8	64	29.6	1	3	292	0.00	30.060 
14:45	40.8	40.8	40.8	64	29.6	1	3	45	0.00	30.058 
14:50	41.2	41.2	41.2	64	30.0	2	5	45	0.00	30.058 
14:55	41.6	41.6	41.6	64	30.3	1	4	315	0.00	30.058 
15:00	41.3	41.3	41.3	62	29.3	0	2	315	0.00	30.056 
15:05	41.2	41.2	41.2	64	30.0	0	2	315	0.00	30.056 
15:10	41.9	41.9	41.9	67	31.8	2	4	315	0.00	30.056 
15:15	42.9	42.9	42.9	65	32.0	1	4	90	0.00	30.055 
15:20	43.1	43.1	43.1	61	30.6	0	2	90	0.00	30.055 
15:25	42.5	42.5	42.5	61	30.0	0	2	90	0.00	30.055 
15:30	42.2	42.2	42.2	62	30.1	0	2	90	0.00	30.057 
15:35	42.1	42.1	42.1	62	30.0	1	5	90	0.00	30.057 
15:40	41.8	41.8	41.8	63	30.1	1	5	90	0.00	30.057 
15:45	41.8	41.8	41.8	63	30.1	1	6	90	0.00	30.059 
15:50	41.6	41.6	41.6	62	29.6	1	3	112	0.00	30.059 
15:55	41.6	41.6	41.6	62	29.6	1	3	112	0.00	30.059 
16:00	41.5	41.5	41.5	62	29.5	1	2	112	0.00	30.059 
16:05	41.6	41.6	41.6	63	30.0	0	1	112	0.00	30.059 
16:10	42.1	42.1	42.1	64	30.8	0	2	112	0.00	30.059 
16:15	42.2	42.2	42.2	63	30.5	1	3	112	0.00	30.060 
16:20	42.3	42.3	42.3	61	29.8	1	3	112	0.00	30.060 
16:25	42.5	42.5	42.5	62	30.4	1	3	112	0.00	30.060 
16:30	42.8	42.8	42.8	63	31.1	1	3	112	0.00	30.058 
16:35	42.9	42.9	42.9	60	30.0	1	3	112	0.00	30.058 
16:40	42.9	42.9	42.9	61	30.4	1	2	112	0.00	30.058 
16:45	42.8	42.8	42.8	60	29.9	1	3	112	0.00	30.060 
16:50	43.1	43.1	43.1	63	31.4	1	4	112	0.00	30.060 
16:55	43.9	43.9	43.9	61	31.3	1	3	112	0.00	30.060 
17:00	44.2	44.2	44.2	59	30.8	1	3	112	0.00	30.062 
17:05	44.3	44.3	44.3	60	31.3	0	2	112	0.00	30.062 
17:10	44.2	44.2	44.2	61	31.6	1	4	112	0.00	30.062 
17:15	43.9	43.9	43.9	62	31.7	0	3	112	0.00	30.071 
17:20	43.6	43.6	43.6	60	30.6	2	6	112	0.00	30.071 
17:25	43.3	43.3	43.3	62	31.2	1	3	90	0.00	30.071 
17:30	43.5	43.5	43.5	62	31.4	1	3	90	0.00	30.077 
17:35	43.5	43.5	43.5	61	31.0	1	4	90	0.00	30.077 
17:40	43.5	43.5	43.5	61	31.0	0	1	90	0.00	30.077 
17:45	43.6	43.6	43.6	61	31.0	2	6	90	0.00	30.075 
17:50	43.5	43.5	43.5	62	31.4	2	5	90	0.00	30.075 
17:55	43.6	43.6	43.6	61	31.0	1	5	90	0.00	30.075 
18:00	43.6	43.6	43.6	61	31.0	1	3	90	0.00	30.082 
18:05	43.6	43.6	43.6	61	31.0	1	4	90	0.00	30.082 
18:10	43.5	43.5	43.5	61	31.0	1	4	90	0.00	30.082 
18:15	43.3	43.3	43.3	61	30.8	0	2	90	0.00	30.089 
18:20	43.3	43.3	43.3	62	31.2	0	2	90	0.00	30.089 
18:25	43.5	43.5	43.5	61	31.0	0	3	90	0.00	30.089 
18:30	43.6	43.6	43.6	62	31.5	1	4	90	0.00	30.088 
18:35	43.6	43.6	43.6	62	31.5	1	3	90	0.00	30.088 
18:40	43.6	43.6	43.6	62	31.5	0	3	90	0.00	30.088 
18:45	43.5	43.5	43.5	61	31.0	1	4	90	0.00	30.087 
18:50	43.5	43.5	43.5	61	31.0	1	3	112	0.00	30.087 
18:55	43.2	43.2	43.2	62	31.1	1	4	112	0.00	30.087 
19:00	43.1	43.1	43.1	63	31.4	3	6	112	0.00	30.091 
19:05	42.6	42.6	42.6	63	30.9	1	4	90	0.00	30.091 
19:10	42.5	42.5	42.5	65	31.6	2	6	90	0.00	30.091 
19:15	42.3	42.3	42.3	65	31.4	2	5	90	0.00	30.098 
19:20	42.1	42.1	42.1	66	31.6	2	5	90	0.00	30.098 
19:25	41.9	41.9	41.9	67	31.8	1	2	90	0.00	30.098 
19:30	41.8	41.8	41.8	67	31.7	0	2	90	0.00	30.104 
19:35	41.5	41.5	41.5	68	31.7	0	1	112	0.00	30.104 
19:40	41.3	41.3	41.3	68	31.5	0	3	112	0.00	30.104 
19:45	41.1	41.1	41.1	69	31.7	2	6	90	0.00	30.109 
19:50	40.8	40.8	40.8	69	31.4	1	3	90	0.00	30.109 
19:55	40.6	40.6	40.6	69	31.2	0	1	90	0.00	30.109 
20:00	40.3	40.3	40.3	70	31.3	0	4	90	0.00	30.112 
20:05	40.1	40.1	40.1	71	31.5	0	2	90	0.00	30.112 
20:10	39.9	39.9	39.9	71	31.3	0	1	90	0.00	30.112 
20:15	39.6	39.6	39.6	72	31.3	0	1	90	0.00	30.116 
20:20	39.3	39.3	39.3	72	31.0	0	1	90	0.00	30.116 
20:25	39.2	39.2	39.2	73	31.3	0	3	90	0.00	30.116 
20:30	38.9	38.9	38.9	73	31.0	0	2	90	0.00	30.128 
20:35	38.8	38.8	38.8	73	30.9	0	1	90	0.00	30.128 
20:40	38.6	38.6	38.6	74	31.0	0	1	90	0.00	30.128 
20:45	38.5	38.5	38.5	74	30.9	0	2	90	0.00	30.130 
20:50	38.2	38.2	38.2	74	30.7	0	1	90	0.00	30.130 
20:55	38.0	38.0	38.0	75	30.8	0	1	90	0.00	30.130 
21:00	37.8	37.8	37.8	75	30.6	0	1	90	0.00	30.141 
21:05	37.6	37.6	37.6	76	30.7	0	0	---	0.00	30.141 
21:10	37.3	37.3	37.3	76	30.4	0	1	90	0.00	30.141 
21:15	37.2	37.2	37.2	77	30.7	0	1	90	0.00	30.146 
21:20	37.0	37.0	37.0	78	30.8	0	1	90	0.00	30.146 
21:25	36.9	36.9	36.9	78	30.7	0	1	90	0.00	30.146 
21:30	36.8	36.8	36.8	78	30.6	0	1	90	0.00	30.153 
21:35	36.6	36.6	36.6	79	30.7	0	1	90	0.00	30.153 
21:40	36.5	36.5	36.5	79	30.6	0	1	90	0.00	30.153 
21:45	36.2	36.2	36.2	79	30.3	0	1	90	0.00	30.154 
21:50	36.0	36.0	36.0	80	30.4	0	0	---	0.00	30.154 
21:55	35.9	35.9	35.9	80	30.3	0	1	90	0.00	30.154 
22:00	35.8	35.8	35.8	81	30.6	0	1	90	0.00	30.160 
22:05	35.6	35.6	35.6	81	30.4	0	0	---	0.00	30.160 
22:10	35.5	35.5	35.5	81	30.3	0	0	---	0.00	30.160 
22:15	35.3	35.3	35.3	81	30.1	0	0	---	0.00	30.160 
22:20	35.0	35.0	35.0	81	29.8	0	0	---	0.00	30.160 
22:25	34.9	34.9	34.9	81	29.7	0	0	---	0.00	30.160 
22:30	34.7	34.7	34.7	82	29.8	0	0	---	0.00	30.161 
22:35	34.6	34.6	34.6	82	29.7	0	0	---	0.00	30.161 
22:40	34.3	34.3	34.3	82	29.4	0	0	---	0.00	30.161 
22:45	34.1	34.1	34.1	82	29.2	0	0	---	0.00	30.163 
22:50	34.1	34.1	34.1	83	29.5	0	0	---	0.00	30.163 
22:55	34.0	34.0	34.0	83	29.4	0	1	90	0.00	30.163 
23:00	34.0	34.0	34.0	83	29.4	0	1	90	0.00	30.165 
23:05	34.0	34.0	34.0	83	29.4	0	0	---	0.00	30.165 
23:10	34.1	34.1	34.1	83	29.5	0	1	90	0.00	30.165 
23:15	34.1	34.1	34.1	83	29.5	0	0	---	0.00	30.161 
23:20	34.1	34.1	34.1	83	29.5	0	1	90	0.00	30.161 
23:25	34.1	34.1	34.1	83	29.5	0	1	90	0.00	30.161 
23:30	34.1	34.1	34.1	83	29.5	0	0	---	0.00	30.166 
23:35	34.1	34.1	34.1	83	29.5	0	1	90	0.00	30.166 
23:40	34.1	34.1	34.1	83	29.5	0	1	90	0.00	30.166 
23:45	34.1	34.1	34.1	83	29.5	0	1	90	0.00	30.176 
23:50	34.0	34.0	34.0	83	29.4	0	1	90	0.00	30.176 
23:55	33.8	33.8	33.8	83	29.2	0	0	---	0.00	30.176 

CoCoRaHS
IN-AL-39
A2 Web Hosting
Creative Commons License
GoDaddy
search engine by freefind advanced

loaded 2018-11-17 18:25:06 • last modified 2010-11-18 10:43:29
Privacy PolicyDisclaimer
• wx.awcolley.com is powered by PmWiki v.2002016 •
• all content (unless otherwise noted) © 2018 A W Colley